createdAt,value
2022-11-28T00:01:41.506Z,68.10
2022-11-28T00:04:10.691Z,74.90
2022-11-28T00:06:49.164Z,63.70
2022-11-28T00:09:20.568Z,58.80
2022-11-28T00:11:50.077Z,61.00
2022-11-28T00:14:20.285Z,75.30
2022-11-28T00:16:49.140Z,71.10
2022-11-28T00:19:17.181Z,68.90
2022-11-28T00:21:45.175Z,75.40
2022-11-28T00:24:13.313Z,69.20
2022-11-28T00:26:42.081Z,73.20
2022-11-28T00:29:11.660Z,72.60
2022-11-28T00:31:43.137Z,80.80
2022-11-28T00:34:14.122Z,86.80
2022-11-28T00:36:45.371Z,83.80
2022-11-28T00:39:15.250Z,82.70
2022-11-28T00:41:44.697Z,75.00
2022-11-28T00:44:13.192Z,80.80
2022-11-28T00:46:41.811Z,86.50
2022-11-28T00:49:09.825Z,73.10
2022-11-28T00:51:38.377Z,74.80
2022-11-28T00:54:06.711Z,79.70
2022-11-28T00:56:37.949Z,80.70
2022-11-28T00:59:07.431Z,77.80
2022-11-28T01:01:41.616Z,78.60
2022-11-28T01:04:13.198Z,75.30
2022-11-28T01:06:47.621Z,79.60
2022-11-28T01:09:22.482Z,69.20
2022-11-28T01:11:52.551Z,74.60
2022-11-28T01:14:23.327Z,73.80
2022-11-28T01:16:51.597Z,75.20
2022-11-28T01:19:20.061Z,76.60
2022-11-28T01:21:48.266Z,70.40
2022-11-28T01:24:17.148Z,73.70
2022-11-28T01:26:45.401Z,76.60
2022-11-28T01:29:13.559Z,71.70
2022-11-28T01:31:41.616Z,75.40
2022-11-28T01:34:09.988Z,71.60
2022-11-28T01:36:37.863Z,72.90
2022-11-28T01:39:06.163Z,75.90
2022-11-28T01:41:34.242Z,76.70
2022-11-28T01:44:14.361Z,77.70
2022-11-28T01:46:43.017Z,73.50
2022-11-28T01:49:18.341Z,75.90
2022-11-28T01:51:51.200Z,77.40
2022-11-28T01:54:22.649Z,79.20
2022-11-28T01:57:09.967Z,77.30
2022-11-28T01:59:43.264Z,75.50
2022-11-28T02:02:18.205Z,79.40
2022-11-28T02:04:47.682Z,79.80
2022-11-28T02:07:15.757Z,77.70
2022-11-28T02:09:43.803Z,72.50
2022-11-28T02:12:21.276Z,74.30
2022-11-28T02:14:58.335Z,76.40
2022-11-28T02:17:56.862Z,79.30
2022-11-28T02:20:56.207Z,76.10
2022-11-28T02:23:38.771Z,80.90
2022-11-28T02:26:25.550Z,79.40
2022-11-28T02:29:08.732Z,82.20
2022-11-28T02:32:01.704Z,84.50
2022-11-28T02:34:50.277Z,75.90
2022-11-28T02:37:37.463Z,78.00
2022-11-28T02:40:26.761Z,76.20
2022-11-28T02:43:13.991Z,74.50
2022-11-28T02:45:51.613Z,74.50
2022-11-28T02:48:37.723Z,79.70
2022-11-28T02:51:13.866Z,73.70
2022-11-28T02:53:45.851Z,78.20
2022-11-28T02:56:14.483Z,80.20
2022-11-28T02:58:42.580Z,73.50
2022-11-28T03:01:23.732Z,76.00
2022-11-28T03:04:09.057Z,82.70
2022-11-28T03:06:43.051Z,76.10
2022-11-28T03:09:45.148Z,72.00
2022-11-28T03:12:13.141Z,68.20
2022-11-28T03:14:54.836Z,69.70
2022-11-28T03:17:38.255Z,72.20
2022-11-28T03:20:21.761Z,69.60
2022-11-28T03:23:02.547Z,72.60
2022-11-28T03:25:44.815Z,77.40
2022-11-28T03:28:21.426Z,75.70
2022-11-28T03:30:55.639Z,78.50
2022-11-28T03:33:27.826Z,68.30
2022-11-28T03:36:02.893Z,83.60
2022-11-28T03:38:37.300Z,83.80
2022-11-28T03:41:13.848Z,75.40
2022-11-28T03:43:47.682Z,71.70
2022-11-28T03:46:18.971Z,73.60
2022-11-28T03:48:50.591Z,69.20
2022-11-28T03:51:22.018Z,68.60
2022-11-28T03:54:02.506Z,75.10
2022-11-28T03:56:39.659Z,74.70
2022-11-28T03:59:33.558Z,73.20
2022-11-28T04:02:15.641Z,71.10
2022-11-28T04:05:00.985Z,73.50
2022-11-28T04:07:47.335Z,73.70
2022-11-28T04:10:28.376Z,74.10
2022-11-28T04:13:05.261Z,78.70
2022-11-28T04:15:46.273Z,81.70
2022-11-28T04:18:43.398Z,79.10
2022-11-28T04:21:14.353Z,73.50
2022-11-28T04:23:45.737Z,80.20
2022-11-28T04:26:18.606Z,79.20
2022-11-28T04:28:49.942Z,80.10
2022-11-28T04:31:22.670Z,76.00
2022-11-28T04:33:56.367Z,74.50
2022-11-28T04:36:26.944Z,71.00
2022-11-28T04:38:57.704Z,77.50
2022-11-28T04:41:33.765Z,74.10
2022-11-28T04:44:27.104Z,77.30
2022-11-28T04:46:57.045Z,78.80
2022-11-28T04:49:27.162Z,75.40
2022-11-28T04:52:09.365Z,74.80
2022-11-28T04:55:07.973Z,78.60
2022-11-28T04:57:39.718Z,77.80
2022-11-28T05:00:22.401Z,79.80
2022-11-28T05:02:53.377Z,75.50
2022-11-28T05:05:25.381Z,71.00
2022-11-28T05:07:53.498Z,78.00
2022-11-28T05:10:21.791Z,76.40
2022-11-28T05:12:50.319Z,76.60
2022-11-28T05:15:19.354Z,77.00
2022-11-28T05:17:47.430Z,71.30
2022-11-28T05:20:15.507Z,73.90
2022-11-28T05:22:43.543Z,74.10
2022-11-28T05:25:11.601Z,78.90
2022-11-28T05:27:39.541Z,80.80
2022-11-28T05:30:08.146Z,83.00
2022-11-28T05:32:36.681Z,80.20
2022-11-28T05:35:05.413Z,76.70
2022-11-28T05:37:37.357Z,78.10
2022-11-28T05:40:06.915Z,78.40
2022-11-28T05:42:36.658Z,71.30
2022-11-28T05:45:05.815Z,72.00
2022-11-28T05:47:34.609Z,76.60
2022-11-28T05:50:02.794Z,77.90
2022-11-28T05:52:32.602Z,74.60
2022-11-28T05:55:01.714Z,67.90
2022-11-28T05:57:32.751Z,65.10
2022-11-28T06:00:01.099Z,70.30
2022-11-28T06:02:29.401Z,73.80
2022-11-28T06:04:59.929Z,79.10
2022-11-28T06:07:32.309Z,84.30
2022-11-28T06:10:00.648Z,74.20
2022-11-28T06:12:29.666Z,74.60
2022-11-28T06:14:58.018Z,75.30
2022-11-28T06:17:26.114Z,69.20
2022-11-28T06:19:54.102Z,66.20
2022-11-28T06:22:22.034Z,64.60
2022-11-28T06:24:50.628Z,65.60
2022-11-28T06:27:18.860Z,64.40
2022-11-28T06:29:46.814Z,75.50
2022-11-28T06:32:17.658Z,80.70
2022-11-28T06:34:49.551Z,83.40
2022-11-28T06:37:17.507Z,76.30
2022-11-28T06:39:45.485Z,79.80
2022-11-28T06:42:15.212Z,79.30
2022-11-28T06:44:43.532Z,76.70
2022-11-28T06:47:11.484Z,67.30
2022-11-28T06:49:39.471Z,65.50
2022-11-28T06:52:07.431Z,74.00
2022-11-28T06:54:35.434Z,69.90
2022-11-28T06:57:03.518Z,63.10
2022-11-28T06:59:31.327Z,64.60
2022-11-28T07:02:07.192Z,69.10
2022-11-28T07:04:35.954Z,62.20
2022-11-28T07:07:03.821Z,67.40
2022-11-28T07:09:32.123Z,69.50
2022-11-28T07:12:00.151Z,65.50
2022-11-28T07:14:28.538Z,71.70
2022-11-28T07:16:56.387Z,69.30
2022-11-28T07:19:24.499Z,72.00
2022-11-28T07:21:52.546Z,69.40
2022-11-28T07:24:20.835Z,70.10
2022-11-28T07:26:48.945Z,66.50
2022-11-28T07:29:19.188Z,69.50
2022-11-28T07:31:48.162Z,69.00
2022-11-28T07:34:17.116Z,71.80
2022-11-28T07:36:46.263Z,73.80
2022-11-28T07:39:18.365Z,65.40
2022-11-28T07:41:46.712Z,70.00
2022-11-28T07:44:18.201Z,71.70
2022-11-28T07:46:47.429Z,68.50
2022-11-28T07:49:16.175Z,74.80
2022-11-28T07:51:44.261Z,69.60
2022-11-28T07:54:12.756Z,71.70
2022-11-28T07:59:29.774Z,70.20
2022-11-28T08:01:58.213Z,62.80
2022-11-28T08:04:26.929Z,59.40
2022-11-28T08:06:55.753Z,63.20
2022-11-28T08:09:23.842Z,60.40
2022-11-28T08:11:52.731Z,60.30
2022-11-28T08:14:20.826Z,66.70
2022-11-28T08:16:49.866Z,63.10
2022-11-28T08:19:22.948Z,61.20
2022-11-28T08:21:53.257Z,64.10
2022-11-28T08:24:21.561Z,68.30
2022-11-28T08:26:49.968Z,62.00
2022-11-28T08:29:18.822Z,61.50
2022-11-28T08:31:47.501Z,60.30
2022-11-28T08:34:15.930Z,62.30
2022-11-28T08:36:44.834Z,67.30
2022-11-28T08:39:28.530Z,60.70
2022-11-28T08:41:57.868Z,62.80
2022-11-28T08:44:30.482Z,63.60
2022-11-28T08:47:01.269Z,66.50
2022-11-28T08:49:29.619Z,59.10
2022-11-28T08:51:57.849Z,58.10
2022-11-28T08:54:28.601Z,63.40
2022-11-28T08:56:59.848Z,63.40
2022-11-28T08:59:28.444Z,57.70
2022-11-28T09:01:57.104Z,61.80
2022-11-28T09:04:25.510Z,60.70
2022-11-28T09:06:54.206Z,62.40
2022-11-28T09:09:22.653Z,60.00
2022-11-28T09:11:50.785Z,63.90
2022-11-28T09:14:19.000Z,59.70
2022-11-28T09:16:48.537Z,64.70
2022-11-28T09:19:16.867Z,65.40
2022-11-28T09:21:45.165Z,65.70
2022-11-28T09:24:16.610Z,62.10
2022-11-28T09:26:45.315Z,64.10
2022-11-28T09:29:13.768Z,59.90
2022-11-28T09:31:47.141Z,64.00
2022-11-28T09:34:16.241Z,64.40
2022-11-28T09:36:44.550Z,63.90
2022-11-28T09:39:12.594Z,58.80
2022-11-28T09:41:54.984Z,60.30
2022-11-28T09:44:45.650Z,51.20
2022-11-28T09:47:24.099Z,60.40
2022-11-28T09:50:15.567Z,61.00
2022-11-28T09:52:53.884Z,64.10
2022-11-28T09:55:29.475Z,58.90
2022-11-28T09:58:01.580Z,56.30
2022-11-28T10:00:42.855Z,61.30
2022-11-28T10:03:16.942Z,55.30
2022-11-28T10:05:58.207Z,59.60
2022-11-28T10:08:52.818Z,61.20
2022-11-28T10:11:42.540Z,65.00
2022-11-28T10:14:29.102Z,60.40
2022-11-28T10:17:19.209Z,58.20
2022-11-28T10:19:55.177Z,57.30
2022-11-28T10:22:40.642Z,57.10
2022-11-28T10:25:16.530Z,56.00
2022-11-28T10:27:46.295Z,52.50
2022-11-28T10:30:33.971Z,59.20
2022-11-28T10:33:18.188Z,57.60
2022-11-28T10:36:04.086Z,59.80
2022-11-28T10:38:34.758Z,51.70
2022-11-28T10:41:24.204Z,52.20
2022-11-28T10:44:22.507Z,45.20
2022-11-28T10:47:04.605Z,53.20
2022-11-28T10:49:43.090Z,51.70
2022-11-28T10:52:18.103Z,50.90
2022-11-28T10:55:07.853Z,49.10
2022-11-28T10:57:39.946Z,54.90
2022-11-28T11:00:19.674Z,52.10
2022-11-28T11:02:50.864Z,48.90
2022-11-28T11:05:31.446Z,50.70
2022-11-28T11:08:04.489Z,52.50
2022-11-28T11:10:45.112Z,51.30
2022-11-28T11:13:17.753Z,53.00
2022-11-28T11:15:49.199Z,52.60
2022-11-28T11:18:38.739Z,50.90
2022-11-28T11:21:20.293Z,49.70
2022-11-28T11:23:50.330Z,53.30
2022-11-28T11:26:38.355Z,53.60
2022-11-28T11:29:06.949Z,56.30
2022-11-28T11:31:50.433Z,51.40
2022-11-28T11:34:21.123Z,59.80
2022-11-28T11:36:51.170Z,51.90
2022-11-28T11:39:23.325Z,58.90
2022-11-28T11:42:11.182Z,59.20
2022-11-28T11:44:46.537Z,58.20
2022-11-28T11:47:15.432Z,54.30
2022-11-28T11:49:50.038Z,55.80
2022-11-28T11:52:22.144Z,56.80
2022-11-28T11:55:10.703Z,57.90
2022-11-28T11:57:44.505Z,48.60
2022-11-28T12:00:18.561Z,51.70
2022-11-28T12:02:53.309Z,51.80
2022-11-28T12:05:59.021Z,52.70
2022-11-28T12:08:47.799Z,53.10
2022-11-28T12:11:31.148Z,48.10
2022-11-28T12:14:28.680Z,49.90
2022-11-28T12:17:46.822Z,49.90
2022-11-28T12:20:22.068Z,49.00
2022-11-28T12:23:23.433Z,53.10
2022-11-28T12:25:54.706Z,49.40
2022-11-28T12:28:38.599Z,44.50
2022-11-28T12:31:09.635Z,48.20
2022-11-28T12:33:43.740Z,46.30
2022-11-28T12:36:36.765Z,46.90
2022-11-28T12:39:17.730Z,48.00
2022-11-28T12:41:59.867Z,50.70
2022-11-28T12:44:35.459Z,48.30
2022-11-28T12:47:17.749Z,42.90
2022-11-28T12:50:03.396Z,47.20
2022-11-28T12:52:43.780Z,49.80
2022-11-28T12:55:41.099Z,44.00
2022-11-28T12:58:16.838Z,54.10
2022-11-28T13:01:04.711Z,46.80
2022-11-28T13:04:15.842Z,46.70
2022-11-28T13:07:06.921Z,48.20
2022-11-28T13:09:43.831Z,44.10
2022-11-28T13:12:42.522Z,51.40
2022-11-28T13:15:26.090Z,48.00
2022-11-28T13:18:02.687Z,48.60
2022-11-28T13:20:43.199Z,49.50
2022-11-28T13:23:21.767Z,50.10
2022-11-28T13:26:05.021Z,50.60
2022-11-28T13:29:03.688Z,50.30
2022-11-28T13:31:43.255Z,46.80
2022-11-28T13:34:38.765Z,46.80
2022-11-28T13:40:17.812Z,49.30
2022-11-28T13:43:47.001Z,48.30
2022-11-28T13:46:16.386Z,52.40
2022-11-28T13:49:15.133Z,46.70
2022-11-28T13:51:45.340Z,43.90
2022-11-28T13:54:20.763Z,52.80
2022-11-28T13:57:10.847Z,52.30
2022-11-28T13:59:39.380Z,51.80
2022-11-28T14:02:34.042Z,54.70
2022-11-28T14:05:04.752Z,54.20
2022-11-28T14:07:34.875Z,56.20
2022-11-28T14:10:23.543Z,54.70
2022-11-28T14:13:33.342Z,55.50
2022-11-28T14:16:26.516Z,63.00
2022-11-28T14:19:13.198Z,67.40
2022-11-28T14:22:18.991Z,58.60
2022-11-28T14:25:11.772Z,70.00
2022-11-28T14:27:47.543Z,65.20
2022-11-28T14:30:43.804Z,69.10
2022-11-28T14:33:34.540Z,66.10
2022-11-28T14:36:22.930Z,68.40
2022-11-28T14:39:13.256Z,67.40
2022-11-28T14:42:03.383Z,74.00
2022-11-28T14:44:51.538Z,76.30
2022-11-28T14:47:40.360Z,64.50
2022-11-28T14:50:10.310Z,64.40
2022-11-28T14:52:41.630Z,73.10
2022-11-28T14:55:10.983Z,75.50
2022-11-28T14:57:55.633Z,66.10
2022-11-28T15:00:50.228Z,58.30
2022-11-28T15:04:04.597Z,57.30
2022-11-28T15:06:39.019Z,60.10
2022-11-28T15:09:13.497Z,58.00
2022-11-28T15:11:59.009Z,61.80
2022-11-28T15:14:30.309Z,61.00
2022-11-28T15:17:13.189Z,58.90
2022-11-28T15:19:49.534Z,68.70
2022-11-28T15:22:38.348Z,60.30
2022-11-28T15:25:22.808Z,67.30
2022-11-28T15:27:53.447Z,72.00
2022-11-28T15:30:26.548Z,66.80
2022-11-28T15:33:00.564Z,65.40
2022-11-28T15:35:29.392Z,63.90
2022-11-28T15:37:58.759Z,63.80
2022-11-28T15:40:38.110Z,73.90
2022-11-28T15:43:12.667Z,65.90
2022-11-28T15:45:43.041Z,62.60
2022-11-28T15:48:51.597Z,58.40
2022-11-28T15:51:29.684Z,56.70
2022-11-28T15:54:00.502Z,65.90
2022-11-28T15:56:31.338Z,62.40
2022-11-28T15:58:59.821Z,63.60
2022-11-28T16:01:31.240Z,67.20
2022-11-28T16:04:04.798Z,68.00
2022-11-28T16:06:37.886Z,72.50
2022-11-28T16:09:23.951Z,84.90
2022-11-28T16:11:54.661Z,83.90
2022-11-28T16:14:31.435Z,94.70
2022-11-28T16:17:02.556Z,84.30
2022-11-28T16:19:34.234Z,87.60
2022-11-28T16:22:06.277Z,86.20
2022-11-28T16:24:48.956Z,88.10
2022-11-28T16:27:33.526Z,94.10
2022-11-28T16:30:26.984Z,92.90
2022-11-28T16:32:56.791Z,88.80
2022-11-28T16:35:41.681Z,85.60
2022-11-28T16:38:27.535Z,86.40
2022-11-28T16:41:01.941Z,94.60
2022-11-28T16:43:38.483Z,85.20
2022-11-28T16:46:19.703Z,85.70
2022-11-28T16:48:53.980Z,80.00
2022-11-28T16:51:22.777Z,90.40
2022-11-28T16:53:55.034Z,89.60
2022-11-28T16:56:43.714Z,90.60
2022-11-28T16:59:20.620Z,89.70
2022-11-28T17:01:53.301Z,102.00
2022-11-28T17:04:27.555Z,86.90
2022-11-28T17:06:59.276Z,95.30
2022-11-28T17:09:27.750Z,97.50
2022-11-28T17:12:05.556Z,87.50
2022-11-28T17:14:35.214Z,88.70
2022-11-28T17:17:12.204Z,88.00
2022-11-28T17:19:41.934Z,84.00
2022-11-28T17:22:22.934Z,78.10
2022-11-28T17:24:57.217Z,83.10
2022-11-28T17:27:25.471Z,79.70
2022-11-28T17:29:53.768Z,87.40
2022-11-28T17:32:21.800Z,79.80
2022-11-28T17:34:53.083Z,77.80
2022-11-28T17:37:22.179Z,88.70
2022-11-28T17:40:10.512Z,88.70
2022-11-28T17:42:39.557Z,79.50
2022-11-28T17:45:15.181Z,80.30
2022-11-28T17:47:44.756Z,79.10
2022-11-28T17:50:13.675Z,80.80
2022-11-28T17:52:42.227Z,78.80
2022-11-28T17:55:13.333Z,71.30
2022-11-28T17:57:41.841Z,70.20
2022-11-28T18:00:12.480Z,67.20
2022-11-28T18:02:46.400Z,69.20
2022-11-28T18:05:19.259Z,73.10
2022-11-28T18:07:48.312Z,72.30
2022-11-28T18:10:16.700Z,74.20
2022-11-28T18:12:47.537Z,81.00
2022-11-28T18:15:16.461Z,75.70
2022-11-28T18:17:45.247Z,83.10
2022-11-28T18:20:16.124Z,79.20
2022-11-28T18:22:44.959Z,75.50
2022-11-28T18:25:13.961Z,75.50
2022-11-28T18:27:43.914Z,63.30
2022-11-28T18:30:14.597Z,67.70
2022-11-28T18:32:44.085Z,70.70
2022-11-28T18:35:12.919Z,68.60
2022-11-28T18:37:41.467Z,67.50
2022-11-28T18:40:10.312Z,69.80
2022-11-28T18:42:39.612Z,72.60
2022-11-28T18:45:12.779Z,74.50
2022-11-28T18:47:45.327Z,68.10
2022-11-28T18:50:25.991Z,62.30
2022-11-28T18:52:55.197Z,58.70
2022-11-28T18:55:25.844Z,59.10
2022-11-28T18:57:55.415Z,65.70
2022-11-28T19:00:25.302Z,60.40
2022-11-28T19:02:57.449Z,62.60
2022-11-28T19:05:43.341Z,62.50
2022-11-28T19:08:13.046Z,60.30
2022-11-28T19:10:45.285Z,65.60
2022-11-28T19:13:15.396Z,63.40
2022-11-28T19:15:45.473Z,61.70
2022-11-28T19:18:15.631Z,60.50
2022-11-28T19:20:47.023Z,65.30
2022-11-28T19:23:16.882Z,62.60
2022-11-28T19:25:48.095Z,64.20
2022-11-28T19:28:19.260Z,64.30
2022-11-28T19:30:51.408Z,69.00
2022-11-28T19:33:20.532Z,66.40
2022-11-28T19:35:49.899Z,65.40
2022-11-28T19:38:20.067Z,63.80
2022-11-28T19:40:58.764Z,67.40
2022-11-28T19:43:29.058Z,64.20
2022-11-28T19:46:03.041Z,64.70
2022-11-28T19:48:37.840Z,62.60
2022-11-28T19:51:14.888Z,66.20
2022-11-28T19:53:46.178Z,55.90
2022-11-28T19:56:18.589Z,63.20
2022-11-28T19:58:48.735Z,59.00
2022-11-28T20:01:31.143Z,59.80
2022-11-28T20:04:01.474Z,59.80
2022-11-28T20:06:56.363Z,55.00
2022-11-28T20:09:25.055Z,55.30
2022-11-28T20:11:55.338Z,58.50
2022-11-28T20:14:26.293Z,56.60
2022-11-28T20:16:55.353Z,58.50
2022-11-28T20:19:24.069Z,60.30
2022-11-28T20:21:58.739Z,63.30
2022-11-28T20:24:27.402Z,56.40
2022-11-28T20:26:57.894Z,62.50
2022-11-28T20:29:28.158Z,58.30
2022-11-28T20:31:57.486Z,55.00
2022-11-28T20:34:27.881Z,60.20
2022-11-28T20:36:56.603Z,61.70
2022-11-28T20:39:26.555Z,54.40
2022-11-28T20:41:55.091Z,51.20
2022-11-28T20:44:23.445Z,57.40
2022-11-28T20:46:51.699Z,59.80
2022-11-28T20:49:20.162Z,60.70
2022-11-28T20:51:48.249Z,57.50
2022-11-28T20:54:17.589Z,59.00
2022-11-28T20:57:13.278Z,58.40
2022-11-28T20:59:33.962Z,64.60
2022-11-28T21:02:04.188Z,58.70
2022-11-28T21:04:32.366Z,55.90
2022-11-28T21:07:00.908Z,55.90
2022-11-28T21:09:29.117Z,59.40
2022-11-28T21:11:58.997Z,57.70
2022-11-28T21:14:29.399Z,54.60
2022-11-28T21:16:59.162Z,56.80
2022-11-28T21:19:27.849Z,56.20
2022-11-28T21:21:56.986Z,56.40
2022-11-28T21:24:25.010Z,58.40
2022-11-28T21:26:54.939Z,53.80
2022-11-28T21:29:24.891Z,53.90
2022-11-28T21:31:53.959Z,53.70
2022-11-28T21:34:22.792Z,57.10
2022-11-28T21:36:51.037Z,57.00
2022-11-28T21:39:20.728Z,53.40
2022-11-28T21:41:51.290Z,51.30
2022-11-28T21:44:20.365Z,53.80
2022-11-28T21:46:48.712Z,58.80
2022-11-28T21:49:17.785Z,54.50
2022-11-28T21:51:46.832Z,52.10
2022-11-28T21:54:15.894Z,58.00
2022-11-28T21:56:45.848Z,53.70
2022-11-28T21:59:15.285Z,53.60
2022-11-28T22:01:44.346Z,53.10
2022-11-28T22:04:12.741Z,54.30
2022-11-28T22:06:40.783Z,54.20
2022-11-28T22:09:10.029Z,55.50
2022-11-28T22:11:40.185Z,57.00
2022-11-28T22:14:08.254Z,56.10
2022-11-28T22:16:36.806Z,55.40
2022-11-28T22:19:05.183Z,58.20
2022-11-28T22:21:54.204Z,59.10
2022-11-28T22:24:24.108Z,60.00
2022-11-28T22:26:53.005Z,55.50
2022-11-28T22:29:20.911Z,56.80
2022-11-28T22:31:50.120Z,53.60
2022-11-28T22:34:19.293Z,58.60
2022-11-28T22:36:47.275Z,51.20
2022-11-28T22:39:15.227Z,51.70
2022-11-28T22:41:43.273Z,56.70
2022-11-28T22:44:11.797Z,58.60
2022-11-28T22:46:39.874Z,54.20
2022-11-28T22:49:09.487Z,54.00
2022-11-28T22:51:39.743Z,53.80
2022-11-28T22:54:12.060Z,58.80
2022-11-28T22:56:41.839Z,59.60
2022-11-28T22:59:16.300Z,57.70
2022-11-28T23:01:44.727Z,54.10
2022-11-28T23:04:13.289Z,58.30
2022-11-28T23:06:41.325Z,57.20
2022-11-28T23:09:13.595Z,58.50
2022-11-28T23:11:42.023Z,57.40
2022-11-28T23:14:13.583Z,57.70
2022-11-28T23:16:43.636Z,56.40
2022-11-28T23:19:15.441Z,58.10
2022-11-28T23:21:46.357Z,59.80
2022-11-28T23:24:17.243Z,54.20
2022-11-28T23:26:47.555Z,54.90
2022-11-28T23:29:16.341Z,50.10
2022-11-28T23:31:47.042Z,53.10
2022-11-28T23:34:15.612Z,52.30
2022-11-28T23:36:46.521Z,46.40
2022-11-28T23:39:17.207Z,48.20
2022-11-28T23:41:45.802Z,48.70
2022-11-28T23:44:15.877Z,48.30
2022-11-28T23:46:44.490Z,47.30
2022-11-28T23:49:13.337Z,46.80
2022-11-28T23:51:41.346Z,47.50
2022-11-28T23:54:11.018Z,48.00
2022-11-28T23:56:41.103Z,51.10
2022-11-28T23:59:10.779Z,48.50
